sensor_id;sensor_type;location;lat;lon;timestamp;pressure;altitude;pressure_sealevel;temperature;humidity
34931;BME280;21134;49.646;8.560;2023-04-04T00:01:41;101559.38;;;2.44;56.92
34931;BME280;21134;49.646;8.560;2023-04-04T00:04:07;101546.78;;;2.45;57.21
34931;BME280;21134;49.646;8.560;2023-04-04T00:06:34;101539.66;;;2.54;56.47
34931;BME280;21134;49.646;8.560;2023-04-04T00:09:02;101537.28;;;2.40;57.19
34931;BME280;21134;49.646;8.560;2023-04-04T00:11:28;101531.16;;;2.52;56.12
34931;BME280;21134;49.646;8.560;2023-04-04T00:13:55;101527.59;;;2.49;56.75
34931;BME280;21134;49.646;8.560;2023-04-04T00:16:21;101527.94;;;2.39;56.96
34931;BME280;21134;49.646;8.560;2023-04-04T00:18:48;101533.97;;;2.41;56.80
34931;BME280;21134;49.646;8.560;2023-04-04T00:21:14;101525.13;;;2.32;57.20
34931;BME280;21134;49.646;8.560;2023-04-04T00:23:41;101527.03;;;2.54;56.38
34931;BME280;21134;49.646;8.560;2023-04-04T00:26:09;101521.22;;;2.55;56.08
34931;BME280;21134;49.646;8.560;2023-04-04T00:28:35;101535.63;;;2.40;57.06
34931;BME280;21134;49.646;8.560;2023-04-04T00:31:02;101530.31;;;2.36;56.81
34931;BME280;21134;49.646;8.560;2023-04-04T00:33:28;101530.81;;;2.28;57.70
34931;BME280;21134;49.646;8.560;2023-04-04T00:35:55;101526.13;;;2.18;58.05
34931;BME280;21134;49.646;8.560;2023-04-04T00:38:21;101524.97;;;1.95;58.83
34931;BME280;21134;49.646;8.560;2023-04-04T00:40:49;101528.06;;;1.90;58.78
34931;BME280;21134;49.646;8.560;2023-04-04T00:43:17;101519.94;;;1.79;59.65
34931;BME280;21134;49.646;8.560;2023-04-04T00:45:45;101523.56;;;1.68;60.11
34931;BME280;21134;49.646;8.560;2023-04-04T00:48:12;101519.16;;;1.63;60.47
34931;BME280;21134;49.646;8.560;2023-04-04T00:50:38;101514.00;;;1.62;61.10
34931;BME280;21134;49.646;8.560;2023-04-04T00:53:05;101512.28;;;1.61;60.67
34931;BME280;21134;49.646;8.560;2023-04-04T00:55:31;101510.09;;;1.51;61.74
34931;BME280;21134;49.646;8.560;2023-04-04T00:57:58;101510.31;;;1.39;62.59
34931;BME280;21134;49.646;8.560;2023-04-04T01:00:27;101519.13;;;1.31;64.01
34931;BME280;21134;49.646;8.560;2023-04-04T01:02:53;101514.47;;;1.38;62.80
34931;BME280;21134;49.646;8.560;2023-04-04T01:05:20;101510.47;;;1.42;61.96
34931;BME280;21134;49.646;8.560;2023-04-04T01:07:46;101511.31;;;1.43;61.56
34931;BME280;21134;49.646;8.560;2023-04-04T01:10:13;101517.31;;;1.45;61.47
34931;BME280;21134;49.646;8.560;2023-04-04T01:12:40;101514.59;;;1.56;61.18
34931;BME280;21134;49.646;8.560;2023-04-04T01:15:08;101513.22;;;1.47;61.63
34931;BME280;21134;49.646;8.560;2023-04-04T01:17:36;101514.72;;;1.59;60.81
34931;BME280;21134;49.646;8.560;2023-04-04T01:20:05;101512.59;;;1.51;61.12
34931;BME280;21134;49.646;8.560;2023-04-04T01:22:32;101505.91;;;1.51;60.71
34931;BME280;21134;49.646;8.560;2023-04-04T01:25:00;101509.81;;;1.46;60.96
34931;BME280;21134;49.646;8.560;2023-04-04T01:27:28;101505.41;;;1.58;60.87
34931;BME280;21134;49.646;8.560;2023-04-04T01:29:55;101504.09;;;1.49;61.09
34931;BME280;21134;49.646;8.560;2023-04-04T01:32:26;101498.50;;;1.38;61.86
34931;BME280;21134;49.646;8.560;2023-04-04T01:34:59;101495.53;;;1.30;61.88
34931;BME280;21134;49.646;8.560;2023-04-04T01:37:34;101492.81;;;1.42;61.58
34931;BME280;21134;49.646;8.560;2023-04-04T01:40:07;101491.69;;;1.37;61.66
34931;BME280;21134;49.646;8.560;2023-04-04T01:42:38;101494.53;;;1.43;61.34
34931;BME280;21134;49.646;8.560;2023-04-04T01:45:07;101495.97;;;1.38;61.80
34931;BME280;21134;49.646;8.560;2023-04-04T01:47:37;101488.63;;;1.43;61.24
34931;BME280;21134;49.646;8.560;2023-04-04T01:50:04;101486.25;;;1.62;60.21
34931;BME280;21134;49.646;8.560;2023-04-04T01:52:31;101485.88;;;1.54;60.44
34931;BME280;21134;49.646;8.560;2023-04-04T01:54:58;101484.22;;;1.55;60.56
34931;BME280;21134;49.646;8.560;2023-04-04T01:57:25;101489.25;;;1.38;61.21
34931;BME280;21134;49.646;8.560;2023-04-04T01:59:52;101481.94;;;1.43;60.86
34931;BME280;21134;49.646;8.560;2023-04-04T02:02:19;101478.38;;;1.56;59.96
34931;BME280;21134;49.646;8.560;2023-04-04T02:04:45;101481.69;;;1.55;60.54
34931;BME280;21134;49.646;8.560;2023-04-04T02:07:12;101479.34;;;1.58;59.87
34931;BME280;21134;49.646;8.560;2023-04-04T02:09:39;101486.66;;;1.37;61.08
34931;BME280;21134;49.646;8.560;2023-04-04T02:12:06;101480.75;;;1.53;59.99
34931;BME280;21134;49.646;8.560;2023-04-04T02:14:33;101485.41;;;1.61;59.82
34931;BME280;21134;49.646;8.560;2023-04-04T02:17:01;101488.09;;;1.48;60.15
34931;BME280;21134;49.646;8.560;2023-04-04T02:19:27;101497.38;;;1.49;60.45
34931;BME280;21134;49.646;8.560;2023-04-04T02:21:54;101492.28;;;1.48;60.47
34931;BME280;21134;49.646;8.560;2023-04-04T02:24:20;101494.06;;;1.34;60.73
34931;BME280;21134;49.646;8.560;2023-04-04T02:26:47;101487.59;;;1.39;60.84
34931;BME280;21134;49.646;8.560;2023-04-04T02:29:13;101492.91;;;1.44;60.32
34931;BME280;21134;49.646;8.560;2023-04-04T02:31:41;101490.22;;;1.41;60.68
34931;BME280;21134;49.646;8.560;2023-04-04T02:34:08;101486.19;;;1.28;61.12
34931;BME280;21134;49.646;8.560;2023-04-04T02:36:35;101488.88;;;1.31;61.31
34931;BME280;21134;49.646;8.560;2023-04-04T02:39:02;101486.44;;;1.32;60.96
34931;BME280;21134;49.646;8.560;2023-04-04T02:41:29;101486.41;;;1.16;61.91
34931;BME280;21134;49.646;8.560;2023-04-04T02:43:55;101484.97;;;1.21;61.65
34931;BME280;21134;49.646;8.560;2023-04-04T02:46:21;101488.06;;;1.15;61.48
34931;BME280;21134;49.646;8.560;2023-04-04T02:48:48;101484.75;;;1.33;61.18
34931;BME280;21134;49.646;8.560;2023-04-04T02:51:17;101482.94;;;1.30;61.63
34931;BME280;21134;49.646;8.560;2023-04-04T02:53:43;101487.44;;;1.20;62.25
34931;BME280;21134;49.646;8.560;2023-04-04T02:56:11;101481.19;;;1.13;62.71
34931;BME280;21134;49.646;8.560;2023-04-04T02:58:37;101481.19;;;1.13;62.12
34931;BME280;21134;49.646;8.560;2023-04-04T03:01:03;101482.22;;;1.16;62.07
34931;BME280;21134;49.646;8.560;2023-04-04T03:03:30;101481.69;;;1.38;61.23
34931;BME280;21134;49.646;8.560;2023-04-04T03:05:57;101477.56;;;1.24;61.47
34931;BME280;21134;49.646;8.560;2023-04-04T03:08:26;101479.16;;;1.22;61.76
34931;BME280;21134;49.646;8.560;2023-04-04T03:10:53;101480.72;;;1.20;61.82
34931;BME280;21134;49.646;8.560;2023-04-04T03:13:19;101482.59;;;1.08;62.28
34931;BME280;21134;49.646;8.560;2023-04-04T03:15:45;101483.00;;;0.99;62.69
34931;BME280;21134;49.646;8.560;2023-04-04T03:18:13;101485.41;;;0.98;62.95
34931;BME280;21134;49.646;8.560;2023-04-04T03:20:40;101483.59;;;0.95;62.76
34931;BME280;21134;49.646;8.560;2023-04-04T03:23:07;101481.69;;;0.91;62.75
34931;BME280;21134;49.646;8.560;2023-04-04T03:25:34;101485.78;;;0.89;63.64
34931;BME280;21134;49.646;8.560;2023-04-04T03:28:07;101483.44;;;0.92;63.57
34931;BME280;21134;49.646;8.560;2023-04-04T03:30:34;101478.69;;;0.82;63.47
34931;BME280;21134;49.646;8.560;2023-04-04T03:33:02;101470.03;;;0.77;63.65
34931;BME280;21134;49.646;8.560;2023-04-04T03:35:31;101477.25;;;0.71;63.86
34931;BME280;21134;49.646;8.560;2023-04-04T03:38:00;101477.41;;;0.74;63.79
34931;BME280;21134;49.646;8.560;2023-04-04T03:40:26;101477.03;;;0.82;63.74
34931;BME280;21134;49.646;8.560;2023-04-04T03:42:54;101472.22;;;0.71;63.65
34931;BME280;21134;49.646;8.560;2023-04-04T03:45:20;101468.22;;;0.74;64.18
34931;BME280;21134;49.646;8.560;2023-04-04T03:47:47;101468.09;;;0.73;63.84
34931;BME280;21134;49.646;8.560;2023-04-04T03:50:13;101471.72;;;0.61;63.91
34931;BME280;21134;49.646;8.560;2023-04-04T03:52:40;101470.56;;;0.56;64.41
34931;BME280;21134;49.646;8.560;2023-04-04T03:55:07;101476.75;;;0.61;64.23
34931;BME280;21134;49.646;8.560;2023-04-04T03:57:34;101469.25;;;0.63;64.20
34931;BME280;21134;49.646;8.560;2023-04-04T04:00:03;101468.03;;;0.71;63.59
34931;BME280;21134;49.646;8.560;2023-04-04T04:02:30;101474.06;;;0.58;63.80
34931;BME280;21134;49.646;8.560;2023-04-04T04:04:57;101477.78;;;0.65;63.96
34931;BME280;21134;49.646;8.560;2023-04-04T04:07:23;101472.13;;;0.54;64.09
34931;BME280;21134;49.646;8.560;2023-04-04T04:09:50;101469.19;;;0.61;63.45
34931;BME280;21134;49.646;8.560;2023-04-04T04:12:16;101468.22;;;0.59;63.50
34931;BME280;21134;49.646;8.560;2023-04-04T04:14:43;101469.72;;;0.56;63.98
34931;BME280;21134;49.646;8.560;2023-04-04T04:17:11;101467.94;;;0.69;63.11
34931;BME280;21134;49.646;8.560;2023-04-04T04:19:37;101467.66;;;0.80;62.88
34931;BME280;21134;49.646;8.560;2023-04-04T04:22:03;101462.84;;;0.68;63.12
34931;BME280;21134;49.646;8.560;2023-04-04T04:24:30;101463.97;;;0.58;63.87
34931;BME280;21134;49.646;8.560;2023-04-04T04:26:56;101464.22;;;0.63;63.50
34931;BME280;21134;49.646;8.560;2023-04-04T04:29:23;101461.19;;;0.54;63.98
34931;BME280;21134;49.646;8.560;2023-04-04T04:31:49;101468.84;;;0.55;64.15
34931;BME280;21134;49.646;8.560;2023-04-04T04:34:18;101467.88;;;0.53;63.77
34931;BME280;21134;49.646;8.560;2023-04-04T04:36:45;101470.56;;;0.71;63.45
34931;BME280;21134;49.646;8.560;2023-04-04T04:39:12;101466.41;;;0.57;63.76
34931;BME280;21134;49.646;8.560;2023-04-04T04:41:38;101468.34;;;0.46;64.78
34931;BME280;21134;49.646;8.560;2023-04-04T04:44:05;101468.06;;;0.56;63.56
34931;BME280;21134;49.646;8.560;2023-04-04T04:46:32;101464.84;;;0.59;64.10
34931;BME280;21134;49.646;8.560;2023-04-04T04:48:58;101475.09;;;0.47;64.25
34931;BME280;21134;49.646;8.560;2023-04-04T04:51:26;101479.72;;;0.39;64.48
34931;BME280;21134;49.646;8.560;2023-04-04T04:53:52;101476.22;;;0.37;64.56
34931;BME280;21134;49.646;8.560;2023-04-04T04:56:19;101478.41;;;0.46;63.60
34931;BME280;21134;49.646;8.560;2023-04-04T04:58:46;101476.56;;;0.43;64.19
34931;BME280;21134;49.646;8.560;2023-04-04T05:01:13;101474.56;;;0.53;64.00
34931;BME280;21134;49.646;8.560;2023-04-04T05:03:39;101473.38;;;0.61;63.80
34931;BME280;21134;49.646;8.560;2023-04-04T05:06:06;101479.84;;;0.57;63.42
34931;BME280;21134;49.646;8.560;2023-04-04T05:08:33;101489.56;;;0.66;62.75
34931;BME280;21134;49.646;8.560;2023-04-04T05:11:00;101488.19;;;0.56;63.27
34931;BME280;21134;49.646;8.560;2023-04-04T05:13:26;101487.31;;;0.71;62.98
34931;BME280;21134;49.646;8.560;2023-04-04T05:15:53;101485.13;;;0.77;62.76
34931;BME280;21134;49.646;8.560;2023-04-04T05:18:19;101478.50;;;0.79;62.26
34931;BME280;21134;49.646;8.560;2023-04-04T05:20:50;101487.50;;;0.74;62.78
34931;BME280;21134;49.646;8.560;2023-04-04T05:23:17;101484.53;;;0.66;63.35
34931;BME280;21134;49.646;8.560;2023-04-04T05:25:47;101480.56;;;0.86;62.75
34931;BME280;21134;49.646;8.560;2023-04-04T05:28:13;101479.72;;;0.85;63.34
34931;BME280;21134;49.646;8.560;2023-04-04T05:30:40;101475.28;;;0.96;61.95
34931;BME280;21134;49.646;8.560;2023-04-04T05:33:07;101489.31;;;0.92;62.63
34931;BME280;21134;49.646;8.560;2023-04-04T05:35:33;101489.22;;;1.06;62.08
34931;BME280;21134;49.646;8.560;2023-04-04T05:38:00;101499.22;;;1.04;61.98
34931;BME280;21134;49.646;8.560;2023-04-04T05:40:27;101489.25;;;1.22;60.71
34931;BME280;21134;49.646;8.560;2023-04-04T05:42:55;101485.41;;;1.29;60.58
34931;BME280;21134;49.646;8.560;2023-04-04T05:45:22;101487.66;;;1.24;60.94
34931;BME280;21134;49.646;8.560;2023-04-04T05:47:48;101490.19;;;1.24;61.31
34931;BME280;21134;49.646;8.560;2023-04-04T05:50:15;101485.94;;;1.23;60.84
34931;BME280;21134;49.646;8.560;2023-04-04T05:52:42;101491.25;;;1.28;60.80
34931;BME280;21134;49.646;8.560;2023-04-04T05:55:08;101498.31;;;1.19;61.39
34931;BME280;21134;49.646;8.560;2023-04-04T05:57:35;101501.47;;;1.31;60.77
34931;BME280;21134;49.646;8.560;2023-04-04T06:00:03;101494.78;;;1.48;60.36
34931;BME280;21134;49.646;8.560;2023-04-04T06:02:30;101495.81;;;1.51;60.20
34931;BME280;21134;49.646;8.560;2023-04-04T06:04:57;101489.81;;;1.49;60.40
34931;BME280;21134;49.646;8.560;2023-04-04T06:07:23;101493.34;;;1.53;59.98
34931;BME280;21134;49.646;8.560;2023-04-04T06:09:50;101499.13;;;1.50;60.04
34931;BME280;21134;49.646;8.560;2023-04-04T06:12:16;101495.16;;;1.72;59.94
34931;BME280;21134;49.646;8.560;2023-04-04T06:14:43;101495.41;;;1.76;58.50
34931;BME280;21134;49.646;8.560;2023-04-04T06:17:11;101492.47;;;1.85;57.88
34931;BME280;21134;49.646;8.560;2023-04-04T06:19:37;101493.44;;;1.87;58.56
34931;BME280;21134;49.646;8.560;2023-04-04T06:22:03;101499.31;;;2.04;57.14
34931;BME280;21134;49.646;8.560;2023-04-04T06:24:30;101503.50;;;2.03;58.06
34931;BME280;21134;49.646;8.560;2023-04-04T06:26:56;101502.94;;;2.09;58.14
34931;BME280;21134;49.646;8.560;2023-04-04T06:29:23;101518.28;;;2.14;57.56
34931;BME280;21134;49.646;8.560;2023-04-04T06:31:50;101504.81;;;2.13;57.69
34931;BME280;21134;49.646;8.560;2023-04-04T06:34:19;101507.59;;;2.18;56.94
34931;BME280;21134;49.646;8.560;2023-04-04T06:36:46;101516.16;;;2.21;57.51
34931;BME280;21134;49.646;8.560;2023-04-04T06:39:13;101509.41;;;2.38;57.29
34931;BME280;21134;49.646;8.560;2023-04-04T06:41:39;101509.41;;;2.38;56.92
34931;BME280;21134;49.646;8.560;2023-04-04T06:44:06;101512.94;;;2.42;57.61
34931;BME280;21134;49.646;8.560;2023-04-04T06:46:32;101515.06;;;2.50;57.63
34931;BME280;21134;49.646;8.560;2023-04-04T06:48:59;101522.28;;;2.61;57.59
34931;BME280;21134;49.646;8.560;2023-04-04T06:51:27;101520.25;;;2.89;56.10
34931;BME280;21134;49.646;8.560;2023-04-04T06:53:54;101521.94;;;3.07;56.38
34931;BME280;21134;49.646;8.560;2023-04-04T06:56:21;101513.75;;;3.32;54.32
34931;BME280;21134;49.646;8.560;2023-04-04T06:58:48;101519.34;;;3.24;55.34
34931;BME280;21134;49.646;8.560;2023-04-04T07:01:15;101516.38;;;3.33;54.46
34931;BME280;21134;49.646;8.560;2023-04-04T07:03:41;101518.88;;;3.51;54.53
34931;BME280;21134;49.646;8.560;2023-04-04T07:06:08;101526.34;;;3.67;53.62
34931;BME280;21134;49.646;8.560;2023-04-04T07:08:36;101524.97;;;3.76;53.17
34931;BME280;21134;49.646;8.560;2023-04-04T07:11:03;101530.31;;;3.62;53.58
34931;BME280;21134;49.646;8.560;2023-04-04T07:13:30;101518.88;;;3.70;53.04
34931;BME280;21134;49.646;8.560;2023-04-04T07:15:56;101525.41;;;3.65;52.75
34931;BME280;21134;49.646;8.560;2023-04-04T07:18:23;101512.47;;;3.79;52.59
34931;BME280;21134;49.646;8.560;2023-04-04T07:20:49;101524.06;;;3.93;53.15
34931;BME280;21134;49.646;8.560;2023-04-04T07:23:16;101521.28;;;4.08;52.69
34931;BME280;21134;49.646;8.560;2023-04-04T07:25:44;101527.44;;;4.13;52.38
34931;BME280;21134;49.646;8.560;2023-04-04T07:28:10;101521.00;;;4.21;52.46
34931;BME280;21134;49.646;8.560;2023-04-04T07:30:36;101518.84;;;4.30;51.99
34931;BME280;21134;49.646;8.560;2023-04-04T07:33:03;101515.69;;;4.36;51.29
34931;BME280;21134;49.646;8.560;2023-04-04T07:35:29;101520.22;;;4.43;51.16
34931;BME280;21134;49.646;8.560;2023-04-04T07:37:56;101517.91;;;4.49;51.94
34931;BME280;21134;49.646;8.560;2023-04-04T07:40:23;101509.22;;;4.63;51.59
34931;BME280;21134;49.646;8.560;2023-04-04T07:42:51;101519.50;;;4.89;50.16
34931;BME280;21134;49.646;8.560;2023-04-04T07:45:19;101512.81;;;4.91;49.23
34931;BME280;21134;49.646;8.560;2023-04-04T07:47:46;101510.28;;;4.91;49.32
34931;BME280;21134;49.646;8.560;2023-04-04T07:50:13;101509.72;;;4.98;49.88
34931;BME280;21134;49.646;8.560;2023-04-04T07:52:41;101508.94;;;5.01;48.60
34931;BME280;21134;49.646;8.560;2023-04-04T07:55:08;101507.59;;;5.09;48.98
34931;BME280;21134;49.646;8.560;2023-04-04T07:57:36;101507.94;;;5.18;49.15
34931;BME280;21134;49.646;8.560;2023-04-04T08:00:06;101508.66;;;5.38;47.67
34931;BME280;21134;49.646;8.560;2023-04-04T08:02:33;101505.84;;;5.54;47.58
34931;BME280;21134;49.646;8.560;2023-04-04T08:05:00;101498.78;;;5.70;46.75
34931;BME280;21134;49.646;8.560;2023-04-04T08:07:26;101505.81;;;5.77;47.15
34931;BME280;21134;49.646;8.560;2023-04-04T08:09:53;101510.19;;;5.81;47.68
34931;BME280;21134;49.646;8.560;2023-04-04T08:12:19;101509.09;;;5.97;46.63
34931;BME280;21134;49.646;8.560;2023-04-04T08:14:46;101505.00;;;6.02;46.39
34931;BME280;21134;49.646;8.560;2023-04-04T08:17:14;101502.22;;;6.20;46.17
34931;BME280;21134;49.646;8.560;2023-04-04T08:19:43;101502.03;;;6.14;46.96
34931;BME280;21134;49.646;8.560;2023-04-04T08:22:09;101500.78;;;6.28;45.79
34931;BME280;21134;49.646;8.560;2023-04-04T08:24:36;101510.66;;;6.19;45.94
34931;BME280;21134;49.646;8.560;2023-04-04T08:27:03;101501.50;;;6.24;45.46
34931;BME280;21134;49.646;8.560;2023-04-04T08:29:30;101504.50;;;6.38;45.56
34931;BME280;21134;49.646;8.560;2023-04-04T08:31:57;101501.28;;;6.43;44.40
34931;BME280;21134;49.646;8.560;2023-04-04T08:34:25;101507.44;;;6.50;44.85
34931;BME280;21134;49.646;8.560;2023-04-04T08:36:51;101513.06;;;6.67;44.88
34931;BME280;21134;49.646;8.560;2023-04-04T08:39:18;101506.41;;;6.70;44.15
34931;BME280;21134;49.646;8.560;2023-04-04T08:41:44;101501.81;;;6.87;44.33
34931;BME280;21134;49.646;8.560;2023-04-04T08:44:15;101498.16;;;6.79;44.69
34931;BME280;21134;49.646;8.560;2023-04-04T08:46:43;101503.78;;;6.96;43.31
34931;BME280;21134;49.646;8.560;2023-04-04T08:49:11;101498.50;;;6.90;43.46
34931;BME280;21134;49.646;8.560;2023-04-04T08:51:42;101499.59;;;6.98;42.39
34931;BME280;21134;49.646;8.560;2023-04-04T08:54:13;101495.34;;;6.98;43.67
34931;BME280;21134;49.646;8.560;2023-04-04T08:56:40;101492.22;;;7.07;42.56
34931;BME280;21134;49.646;8.560;2023-04-04T08:59:07;101487.69;;;6.97;45.04
34931;BME280;21134;49.646;8.560;2023-04-04T09:01:35;101491.66;;;7.17;44.60
34931;BME280;21134;49.646;8.560;2023-04-04T09:04:03;101488.63;;;7.29;44.49
34931;BME280;21134;49.646;8.560;2023-04-04T09:06:30;101490.06;;;7.21;44.77
34931;BME280;21134;49.646;8.560;2023-04-04T09:08:58;101495.22;;;7.53;42.41
34931;BME280;21134;49.646;8.560;2023-04-04T09:11:27;101484.91;;;7.48;41.80
34931;BME280;21134;49.646;8.560;2023-04-04T09:13:56;101483.03;;;7.41;43.21
34931;BME280;21134;49.646;8.560;2023-04-04T09:16:23;101483.47;;;7.56;42.26
34931;BME280;21134;49.646;8.560;2023-04-04T09:18:51;101485.75;;;7.79;41.92
34931;BME280;21134;49.646;8.560;2023-04-04T09:21:18;101479.84;;;7.81;41.24
34931;BME280;21134;49.646;8.560;2023-04-04T09:23:45;101482.94;;;8.01;40.67
34931;BME280;21134;49.646;8.560;2023-04-04T09:26:13;101483.03;;;8.06;39.88
34931;BME280;21134;49.646;8.560;2023-04-04T09:28:41;101483.72;;;7.99;40.19
34931;BME280;21134;49.646;8.560;2023-04-04T09:31:07;101470.75;;;7.89;39.70
34931;BME280;21134;49.646;8.560;2023-04-04T09:33:34;101480.84;;;7.86;41.74
34931;BME280;21134;49.646;8.560;2023-04-04T09:36:03;101485.41;;;7.98;39.70
34931;BME280;21134;49.646;8.560;2023-04-04T09:38:30;101488.56;;;7.89;39.60
34931;BME280;21134;49.646;8.560;2023-04-04T09:40:56;101476.34;;;7.76;40.19
34931;BME280;21134;49.646;8.560;2023-04-04T09:43:25;101480.09;;;7.90;41.67
34931;BME280;21134;49.646;8.560;2023-04-04T09:45:55;101474.72;;;8.13;41.18
34931;BME280;21134;49.646;8.560;2023-04-04T09:48:26;101479.94;;;8.18;39.99
34931;BME280;21134;49.646;8.560;2023-04-04T09:50:55;101474.19;;;8.26;39.38
34931;BME280;21134;49.646;8.560;2023-04-04T09:53:23;101471.06;;;8.36;39.85
34931;BME280;21134;49.646;8.560;2023-04-04T09:55:51;101476.50;;;8.49;40.73
34931;BME280;21134;49.646;8.560;2023-04-04T09:58:19;101469.75;;;8.52;39.15
34931;BME280;21134;49.646;8.560;2023-04-04T10:00:51;101468.56;;;8.38;39.52
34931;BME280;21134;49.646;8.560;2023-04-04T10:03:21;101478.19;;;8.15;39.71
34931;BME280;21134;49.646;8.560;2023-04-04T10:05:54;101472.59;;;8.30;38.71
34931;BME280;21134;49.646;8.560;2023-04-04T10:08:21;101475.72;;;8.20;39.19
34931;BME280;21134;49.646;8.560;2023-04-04T10:10:48;101472.91;;;8.07;39.49
34931;BME280;21134;49.646;8.560;2023-04-04T10:13:22;101475.84;;;8.24;39.50
34931;BME280;21134;49.646;8.560;2023-04-04T10:15:50;101475.84;;;8.24;39.85
34931;BME280;21134;49.646;8.560;2023-04-04T10:18:18;101467.72;;;8.39;39.91
34931;BME280;21134;49.646;8.560;2023-04-04T10:20:45;101473.03;;;8.47;39.63
34931;BME280;21134;49.646;8.560;2023-04-04T10:23:13;101474.25;;;8.64;38.12
34931;BME280;21134;49.646;8.560;2023-04-04T10:25:40;101463.41;;;8.73;39.45
34931;BME280;21134;49.646;8.560;2023-04-04T10:28:07;101467.78;;;8.78;37.71
34931;BME280;21134;49.646;8.560;2023-04-04T10:30:37;101464.38;;;8.78;39.58
34931;BME280;21134;49.646;8.560;2023-04-04T10:33:09;101473.25;;;8.95;40.42
34931;BME280;21134;49.646;8.560;2023-04-04T10:35:40;101468.41;;;9.07;37.41
34931;BME280;21134;49.646;8.560;2023-04-04T10:38:11;101463.44;;;9.14;37.37
34931;BME280;21134;49.646;8.560;2023-04-04T10:40:42;101467.03;;;8.82;38.64
34931;BME280;21134;49.646;8.560;2023-04-04T10:43:11;101456.81;;;8.81;39.07
34931;BME280;21134;49.646;8.560;2023-04-04T10:45:39;101457.94;;;8.95;38.52
34931;BME280;21134;49.646;8.560;2023-04-04T10:48:07;101464.09;;;9.05;38.48
34931;BME280;21134;49.646;8.560;2023-04-04T10:50:35;101467.31;;;8.96;38.98
34931;BME280;21134;49.646;8.560;2023-04-04T10:53:02;101472.53;;;9.01;37.65
34931;BME280;21134;49.646;8.560;2023-04-04T10:55:29;101461.34;;;8.96;38.68
34931;BME280;21134;49.646;8.560;2023-04-04T10:57:56;101453.81;;;9.00;38.46
34931;BME280;21134;49.646;8.560;2023-04-04T11:00:23;101454.31;;;8.84;39.26
34931;BME280;21134;49.646;8.560;2023-04-04T11:02:53;101446.22;;;9.03;38.75
34931;BME280;21134;49.646;8.560;2023-04-04T11:05:24;101450.03;;;9.24;41.14
34931;BME280;21134;49.646;8.560;2023-04-04T11:07:53;101435.59;;;9.26;37.38
34931;BME280;21134;49.646;8.560;2023-04-04T11:10:23;101435.25;;;9.09;36.99
34931;BME280;21134;49.646;8.560;2023-04-04T11:12:54;101433.69;;;9.16;38.93
34931;BME280;21134;49.646;8.560;2023-04-04T11:15:24;101429.03;;;8.96;38.96
34931;BME280;21134;49.646;8.560;2023-04-04T11:17:54;101425.41;;;8.87;38.71
34931;BME280;21134;49.646;8.560;2023-04-04T11:20:27;101429.66;;;8.86;37.77
34931;BME280;21134;49.646;8.560;2023-04-04T11:23:04;101420.25;;;8.83;38.48
34931;BME280;21134;49.646;8.560;2023-04-04T11:25:33;101419.94;;;9.09;38.74
34931;BME280;21134;49.646;8.560;2023-04-04T11:28:04;101414.75;;;9.04;38.25
34931;BME280;21134;49.646;8.560;2023-04-04T11:30:36;101414.53;;;9.38;38.60
34931;BME280;21134;49.646;8.560;2023-04-04T11:33:03;101418.28;;;9.57;39.13
34931;BME280;21134;49.646;8.560;2023-04-04T11:35:31;101416.94;;;9.77;38.45
34931;BME280;21134;49.646;8.560;2023-04-04T11:37:59;101419.78;;;9.94;38.22
34931;BME280;21134;49.646;8.560;2023-04-04T11:40:37;101421.44;;;9.90;37.38
34931;BME280;21134;49.646;8.560;2023-04-04T11:43:11;101407.84;;;9.93;37.53
34931;BME280;21134;49.646;8.560;2023-04-04T11:45:43;101411.25;;;9.93;37.37
34931;BME280;21134;49.646;8.560;2023-04-04T11:48:09;101400.94;;;9.89;37.21
34931;BME280;21134;49.646;8.560;2023-04-04T11:50:39;101396.81;;;9.97;38.85
34931;BME280;21134;49.646;8.560;2023-04-04T11:53:07;101394.38;;;10.03;37.86
34931;BME280;21134;49.646;8.560;2023-04-04T11:55:38;101391.72;;;9.97;38.01
34931;BME280;21134;49.646;8.560;2023-04-04T11:58:11;101389.97;;;9.94;36.88
34931;BME280;21134;49.646;8.560;2023-04-04T12:00:38;101395.97;;;9.96;36.02
34931;BME280;21134;49.646;8.560;2023-04-04T12:03:06;101382.38;;;9.99;36.78
34931;BME280;21134;49.646;8.560;2023-04-04T12:05:35;101377.34;;;9.52;37.90
34931;BME280;21134;49.646;8.560;2023-04-04T12:08:05;101391.34;;;9.74;38.22
34931;BME280;21134;49.646;8.560;2023-04-04T12:10:33;101388.94;;;9.85;37.59
34931;BME280;21134;49.646;8.560;2023-04-04T12:13:00;101381.63;;;10.06;37.39
34931;BME280;21134;49.646;8.560;2023-04-04T12:15:28;101377.53;;;10.17;37.36
34931;BME280;21134;49.646;8.560;2023-04-04T12:17:57;101369.56;;;9.97;37.08
34931;BME280;21134;49.646;8.560;2023-04-04T12:20:24;101364.53;;;10.04;37.93
34931;BME280;21134;49.646;8.560;2023-04-04T12:22:51;101368.09;;;10.12;37.26
34931;BME280;21134;49.646;8.560;2023-04-04T12:25:21;101360.53;;;10.19;36.56
34931;BME280;21134;49.646;8.560;2023-04-04T12:27:48;101363.44;;;10.42;37.83
34931;BME280;21134;49.646;8.560;2023-04-04T12:30:16;101360.09;;;10.50;37.20
34931;BME280;21134;49.646;8.560;2023-04-04T12:32:44;101354.38;;;10.67;36.78
34931;BME280;21134;49.646;8.560;2023-04-04T12:35:11;101358.75;;;10.78;36.02
34931;BME280;21134;49.646;8.560;2023-04-04T12:37:54;101353.09;;;11.03;37.97
34931;BME280;21134;49.646;8.560;2023-04-04T12:40:22;101349.84;;;11.20;36.58
34931;BME280;21134;49.646;8.560;2023-04-04T12:42:49;101353.00;;;10.97;36.42
34931;BME280;21134;49.646;8.560;2023-04-04T12:45:21;101344.81;;;10.54;35.92
34931;BME280;21134;49.646;8.560;2023-04-04T12:47:51;101341.72;;;10.80;35.90
34931;BME280;21134;49.646;8.560;2023-04-04T12:50:20;101337.91;;;11.20;35.95
34931;BME280;21134;49.646;8.560;2023-04-04T12:52:50;101342.97;;;11.15;34.71
34931;BME280;21134;49.646;8.560;2023-04-04T12:55:19;101340.25;;;11.00;35.26
34931;BME280;21134;49.646;8.560;2023-04-04T12:57:48;101333.50;;;11.10;35.03
34931;BME280;21134;49.646;8.560;2023-04-04T13:00:16;101335.41;;;11.28;35.66
34931;BME280;21134;49.646;8.560;2023-04-04T13:02:46;101332.00;;;11.29;34.67